sensor_id;sensor_type;location;lat;lon;timestamp;pressure;altitude;pressure_sealevel;temperature;humidity
84024;BME280;74109;45.636;25.582;2024-01-15T00:00:53;93755.09;;;-2.92;63.74
84024;BME280;74109;45.636;25.582;2024-01-15T00:03:40;93756.45;;;-2.95;64.05
84024;BME280;74109;45.636;25.582;2024-01-15T00:06:06;93756.34;;;-2.95;64.12
84024;BME280;74109;45.636;25.582;2024-01-15T00:08:34;93757.48;;;-2.94;63.91
84024;BME280;74109;45.636;25.582;2024-01-15T00:11:00;93763.38;;;-2.96;64.05
84024;BME280;74109;45.636;25.582;2024-01-15T00:13:27;93764.77;;;-2.99;64.18
84024;BME280;74109;45.636;25.582;2024-01-15T00:15:54;93766.86;;;-3.04;64.08
84024;BME280;74109;45.636;25.582;2024-01-15T00:18:21;93771.67;;;-3.06;64.47
84024;BME280;74109;45.636;25.582;2024-01-15T00:20:48;93768.22;;;-3.09;63.99
84024;BME280;74109;45.636;25.582;2024-01-15T00:23:15;93768.48;;;-3.15;63.89
84024;BME280;74109;45.636;25.582;2024-01-15T00:25:41;93766.11;;;-3.19;63.93
84024;BME280;74109;45.636;25.582;2024-01-15T00:28:09;93763.68;;;-3.21;64.18
84024;BME280;74109;45.636;25.582;2024-01-15T00:30:35;93764.98;;;-3.26;63.85
84024;BME280;74109;45.636;25.582;2024-01-15T00:33:11;93773.33;;;-3.27;63.89
84024;BME280;74109;45.636;25.582;2024-01-15T00:35:39;93774.03;;;-3.26;64.63
84024;BME280;74109;45.636;25.582;2024-01-15T00:38:06;93775.24;;;-3.25;64.49
84024;BME280;74109;45.636;25.582;2024-01-15T00:40:35;93779.19;;;-3.23;64.43
84024;BME280;74109;45.636;25.582;2024-01-15T00:43:01;93775.05;;;-3.23;64.15
84024;BME280;74109;45.636;25.582;2024-01-15T00:45:29;93773.60;;;-3.25;64.85
84024;BME280;74109;45.636;25.582;2024-01-15T00:47:55;93774.83;;;-3.28;64.78
84024;BME280;74109;45.636;25.582;2024-01-15T00:50:23;93771.27;;;-3.31;64.58
84024;BME280;74109;45.636;25.582;2024-01-15T00:52:49;93768.85;;;-3.33;64.09
84024;BME280;74109;45.636;25.582;2024-01-15T00:55:16;93756.45;;;-3.34;64.31
84024;BME280;74109;45.636;25.582;2024-01-15T00:57:43;93759.86;;;-3.35;64.06
84024;BME280;74109;45.636;25.582;2024-01-15T01:00:10;93752.80;;;-3.38;64.13
84024;BME280;74109;45.636;25.582;2024-01-15T01:02:38;93754.86;;;-3.41;65.02
84024;BME280;74109;45.636;25.582;2024-01-15T01:05:10;93758.41;;;-3.47;64.84
84024;BME280;74109;45.636;25.582;2024-01-15T01:07:36;93749.87;;;-3.51;64.42
84024;BME280;74109;45.636;25.582;2024-01-15T01:10:04;93749.09;;;-3.55;64.83
84024;BME280;74109;45.636;25.582;2024-01-15T01:12:37;93749.36;;;-3.60;65.36
84024;BME280;74109;45.636;25.582;2024-01-15T01:15:05;93744.70;;;-3.64;64.79
84024;BME280;74109;45.636;25.582;2024-01-15T01:17:32;93745.27;;;-3.66;64.55
84024;BME280;74109;45.636;25.582;2024-01-15T01:20:00;93747.88;;;-3.68;64.76
84024;BME280;74109;45.636;25.582;2024-01-15T01:22:31;93744.25;;;-3.73;64.67
84024;BME280;74109;45.636;25.582;2024-01-15T01:24:58;93742.73;;;-3.80;65.15
84024;BME280;74109;45.636;25.582;2024-01-15T01:27:25;93737.17;;;-3.85;64.66
84024;BME280;74109;45.636;25.582;2024-01-15T01:29:52;93732.45;;;-3.87;65.30
84024;BME280;74109;45.636;25.582;2024-01-15T01:32:20;93723.88;;;-3.89;64.78
84024;BME280;74109;45.636;25.582;2024-01-15T01:34:47;93721.80;;;-3.89;64.71
84024;BME280;74109;45.636;25.582;2024-01-15T01:37:14;93714.68;;;-3.84;64.97
84024;BME280;74109;45.636;25.582;2024-01-15T01:39:42;93714.39;;;-3.81;65.82
84024;BME280;74109;45.636;25.582;2024-01-15T01:42:10;93712.45;;;-3.77;65.54
84024;BME280;74109;45.636;25.582;2024-01-15T01:44:37;93715.61;;;-3.77;65.57
84024;BME280;74109;45.636;25.582;2024-01-15T01:47:05;93714.83;;;-3.79;65.87
84024;BME280;74109;45.636;25.582;2024-01-15T01:49:32;93716.03;;;-3.79;65.13
84024;BME280;74109;45.636;25.582;2024-01-15T01:52:03;93713.73;;;-3.79;65.11
84024;BME280;74109;45.636;25.582;2024-01-15T01:54:32;93707.66;;;-3.78;64.80
84024;BME280;74109;45.636;25.582;2024-01-15T01:56:59;93707.95;;;-3.82;65.20
84024;BME280;74109;45.636;25.582;2024-01-15T01:59:29;93701.29;;;-3.84;65.71
84024;BME280;74109;45.636;25.582;2024-01-15T02:01:57;93697.70;;;-3.86;65.22
84024;BME280;74109;45.636;25.582;2024-01-15T02:04:26;93698.73;;;-3.88;65.24
84024;BME280;74109;45.636;25.582;2024-01-15T02:06:53;93696.96;;;-3.91;66.12
84024;BME280;74109;45.636;25.582;2024-01-15T02:09:20;93699.46;;;-3.95;65.71
84024;BME280;74109;45.636;25.582;2024-01-15T02:11:47;93697.34;;;-3.98;65.85
84024;BME280;74109;45.636;25.582;2024-01-15T02:14:15;93688.89;;;-3.99;66.29
84024;BME280;74109;45.636;25.582;2024-01-15T02:16:42;93689.52;;;-4.03;65.96
84024;BME280;74109;45.636;25.582;2024-01-15T02:19:16;93688.98;;;-4.04;66.08
84024;BME280;74109;45.636;25.582;2024-01-15T02:21:46;93687.61;;;-3.99;65.32
84024;BME280;74109;45.636;25.582;2024-01-15T02:24:14;93685.64;;;-3.93;65.42
84024;BME280;74109;45.636;25.582;2024-01-15T02:26:42;93683.90;;;-3.88;66.10
84024;BME280;74109;45.636;25.582;2024-01-15T02:29:33;93680.27;;;-3.84;66.49
84024;BME280;74109;45.636;25.582;2024-01-15T02:32:05;93676.28;;;-3.79;66.31
84024;BME280;74109;45.636;25.582;2024-01-15T02:34:32;93669.86;;;-3.78;66.18
84024;BME280;74109;45.636;25.582;2024-01-15T02:36:59;93666.41;;;-3.77;66.06
84024;BME280;74109;45.636;25.582;2024-01-15T02:39:27;93656.21;;;-3.76;65.90
84024;BME280;74109;45.636;25.582;2024-01-15T02:41:55;93647.67;;;-3.77;66.50
84024;BME280;74109;45.636;25.582;2024-01-15T02:44:24;93645.15;;;-3.77;65.81
84024;BME280;74109;45.636;25.582;2024-01-15T02:46:51;93640.75;;;-3.77;66.03
84024;BME280;74109;45.636;25.582;2024-01-15T02:49:18;93641.58;;;-3.78;66.30
84024;BME280;74109;45.636;25.582;2024-01-15T02:51:46;93635.79;;;-3.80;66.29
84024;BME280;74109;45.636;25.582;2024-01-15T02:54:13;93638.95;;;-3.80;66.47
84024;BME280;74109;45.636;25.582;2024-01-15T02:56:40;93638.25;;;-3.79;66.52
84024;BME280;74109;45.636;25.582;2024-01-15T02:59:07;93628.77;;;-3.75;66.41
84024;BME280;74109;45.636;25.582;2024-01-15T03:01:34;93626.34;;;-3.72;66.47
84024;BME280;74109;45.636;25.582;2024-01-15T03:04:01;93632.21;;;-3.63;66.29
84024;BME280;74109;45.636;25.582;2024-01-15T03:06:28;93629.21;;;-3.55;66.48
84024;BME280;74109;45.636;25.582;2024-01-15T03:08:58;93627.06;;;-3.48;66.29
84024;BME280;74109;45.636;25.582;2024-01-15T03:11:25;93625.69;;;-3.41;65.77
84024;BME280;74109;45.636;25.582;2024-01-15T03:13:52;93627.64;;;-3.38;65.98
84024;BME280;74109;45.636;25.582;2024-01-15T03:16:20;93622.55;;;-3.32;65.40
84024;BME280;74109;45.636;25.582;2024-01-15T03:18:47;93619.27;;;-3.28;65.22
84024;BME280;74109;45.636;25.582;2024-01-15T03:21:14;93632.52;;;-3.26;65.21
84024;BME280;74109;45.636;25.582;2024-01-15T03:23:40;93627.89;;;-3.25;65.13
84024;BME280;74109;45.636;25.582;2024-01-15T03:26:07;93621.60;;;-3.26;65.86
84024;BME280;74109;45.636;25.582;2024-01-15T03:28:34;93629.83;;;-3.26;65.35
84024;BME280;74109;45.636;25.582;2024-01-15T03:31:01;93605.15;;;-3.27;65.27
84024;BME280;74109;45.636;25.582;2024-01-15T03:33:29;93607.29;;;-3.32;65.50
84024;BME280;74109;45.636;25.582;2024-01-15T03:35:56;93609.31;;;-3.33;65.39
84024;BME280;74109;45.636;25.582;2024-01-15T03:38:23;93603.92;;;-3.35;64.84
84024;BME280;74109;45.636;25.582;2024-01-15T03:40:51;93609.18;;;-3.35;65.27
84024;BME280;74109;45.636;25.582;2024-01-15T03:43:18;93611.37;;;-3.33;65.04
84024;BME280;74109;45.636;25.582;2024-01-15T03:45:45;93603.66;;;-3.32;65.46
84024;BME280;74109;45.636;25.582;2024-01-15T03:48:12;93599.50;;;-3.29;64.90
84024;BME280;74109;45.636;25.582;2024-01-15T03:50:39;93597.46;;;-3.22;65.01
84024;BME280;74109;45.636;25.582;2024-01-15T03:53:06;93590.13;;;-3.18;65.70
84024;BME280;74109;45.636;25.582;2024-01-15T03:55:32;93592.17;;;-3.12;65.52
84024;BME280;74109;45.636;25.582;2024-01-15T03:57:59;93587.23;;;-3.07;65.79
84024;BME280;74109;45.636;25.582;2024-01-15T04:00:26;93577.54;;;-3.02;65.47
84024;BME280;74109;45.636;25.582;2024-01-15T04:02:53;93576.41;;;-3.00;65.11
84024;BME280;74109;45.636;25.582;2024-01-15T04:05:20;93571.22;;;-2.99;65.36
84024;BME280;74109;45.636;25.582;2024-01-15T04:07:47;93571.41;;;-3.01;65.04
84024;BME280;74109;45.636;25.582;2024-01-15T04:10:14;93567.86;;;-3.02;65.02
84024;BME280;74109;45.636;25.582;2024-01-15T04:12:40;93556.48;;;-3.08;64.99
84024;BME280;74109;45.636;25.582;2024-01-15T04:15:08;93556.80;;;-3.08;65.13
84024;BME280;74109;45.636;25.582;2024-01-15T04:17:36;93556.75;;;-3.14;65.35
84024;BME280;74109;45.636;25.582;2024-01-15T04:20:03;93549.64;;;-3.22;65.67
84024;BME280;74109;45.636;25.582;2024-01-15T04:22:54;93552.98;;;-3.28;65.99
84024;BME280;74109;45.636;25.582;2024-01-15T04:25:21;93553.94;;;-3.36;65.98
84024;BME280;74109;45.636;25.582;2024-01-15T04:27:48;93553.46;;;-3.42;66.19
84024;BME280;74109;45.636;25.582;2024-01-15T04:30:15;93550.05;;;-3.48;66.28
84024;BME280;74109;45.636;25.582;2024-01-15T04:32:42;93549.13;;;-3.48;66.12
84024;BME280;74109;45.636;25.582;2024-01-15T04:35:09;93554.97;;;-3.48;65.83
84024;BME280;74109;45.636;25.582;2024-01-15T04:37:35;93559.61;;;-3.47;66.60
84024;BME280;74109;45.636;25.582;2024-01-15T04:40:03;93551.42;;;-3.49;66.29
84024;BME280;74109;45.636;25.582;2024-01-15T04:42:30;93547.59;;;-3.52;66.80
84024;BME280;74109;45.636;25.582;2024-01-15T04:44:57;93550.54;;;-3.55;66.17
84024;BME280;74109;45.636;25.582;2024-01-15T04:47:24;93551.74;;;-3.56;66.13
84024;BME280;74109;45.636;25.582;2024-01-15T04:49:51;93557.70;;;-3.59;66.53
84024;BME280;74109;45.636;25.582;2024-01-15T04:52:18;93556.70;;;-3.68;66.50
84024;BME280;74109;45.636;25.582;2024-01-15T04:54:45;93555.13;;;-3.72;65.85
84024;BME280;74109;45.636;25.582;2024-01-15T04:57:12;93545.77;;;-3.76;66.52
84024;BME280;74109;45.636;25.582;2024-01-15T04:59:38;93543.10;;;-3.81;66.33
84024;BME280;74109;45.636;25.582;2024-01-15T05:02:06;93548.27;;;-3.83;66.38
84024;BME280;74109;45.636;25.582;2024-01-15T05:04:33;93545.63;;;-3.92;67.17
84024;BME280;74109;45.636;25.582;2024-01-15T05:07:03;93546.91;;;-3.99;67.48
84024;BME280;74109;45.636;25.582;2024-01-15T05:09:31;93540.95;;;-4.04;67.31
84024;BME280;74109;45.636;25.582;2024-01-15T05:11:59;93541.01;;;-4.09;67.39
84024;BME280;74109;45.636;25.582;2024-01-15T05:14:29;93545.14;;;-4.15;67.27
84024;BME280;74109;45.636;25.582;2024-01-15T05:16:56;93547.07;;;-4.18;66.94
84024;BME280;74109;45.636;25.582;2024-01-15T05:19:22;93550.83;;;-4.23;67.90
84024;BME280;74109;45.636;25.582;2024-01-15T05:21:49;93549.55;;;-4.26;68.27
84024;BME280;74109;45.636;25.582;2024-01-15T05:24:16;93545.39;;;-4.27;67.88
84024;BME280;74109;45.636;25.582;2024-01-15T05:26:43;93539.69;;;-4.23;67.76
84024;BME280;74109;45.636;25.582;2024-01-15T05:29:10;93546.98;;;-4.19;67.67
84024;BME280;74109;45.636;25.582;2024-01-15T05:31:38;93542.05;;;-4.17;67.01
84024;BME280;74109;45.636;25.582;2024-01-15T05:34:05;93533.39;;;-4.17;67.20
84024;BME280;74109;45.636;25.582;2024-01-15T05:36:32;93524.63;;;-4.17;67.38
84024;BME280;74109;45.636;25.582;2024-01-15T05:38:58;93528.55;;;-4.20;67.20
84024;BME280;74109;45.636;25.582;2024-01-15T05:41:25;93533.19;;;-4.24;68.07
84024;BME280;74109;45.636;25.582;2024-01-15T05:43:53;93538.14;;;-4.29;67.80
84024;BME280;74109;45.636;25.582;2024-01-15T05:46:20;93541.19;;;-4.33;68.17
84024;BME280;74109;45.636;25.582;2024-01-15T05:48:47;93543.73;;;-4.39;68.61
84024;BME280;74109;45.636;25.582;2024-01-15T05:51:15;93547.14;;;-4.41;68.03
84024;BME280;74109;45.636;25.582;2024-01-15T05:53:46;93543.06;;;-4.44;68.69
84024;BME280;74109;45.636;25.582;2024-01-15T05:56:15;93540.95;;;-4.48;68.70
84024;BME280;74109;45.636;25.582;2024-01-15T05:58:44;93532.11;;;-4.51;69.06
84024;BME280;74109;45.636;25.582;2024-01-15T06:01:10;93533.95;;;-4.48;68.78
84024;BME280;74109;45.636;25.582;2024-01-15T06:03:40;93526.27;;;-4.45;67.85
84024;BME280;74109;45.636;25.582;2024-01-15T06:06:16;93529.64;;;-4.39;68.23
84024;BME280;74109;45.636;25.582;2024-01-15T06:08:46;93526.98;;;-4.36;68.06
84024;BME280;74109;45.636;25.582;2024-01-15T06:11:17;93519.59;;;-4.33;67.96
84024;BME280;74109;45.636;25.582;2024-01-15T06:13:46;93515.25;;;-4.34;68.31
84024;BME280;74109;45.636;25.582;2024-01-15T06:16:14;93516.61;;;-4.34;68.11
84024;BME280;74109;45.636;25.582;2024-01-15T06:18:45;93519.80;;;-4.32;67.66
84024;BME280;74109;45.636;25.582;2024-01-15T06:21:13;93524.80;;;-4.29;67.68
84024;BME280;74109;45.636;25.582;2024-01-15T06:23:42;93523.99;;;-4.28;67.81
84024;BME280;74109;45.636;25.582;2024-01-15T06:26:15;93524.59;;;-4.26;67.90
84024;BME280;74109;45.636;25.582;2024-01-15T06:28:42;93525.34;;;-4.21;68.17
84024;BME280;74109;45.636;25.582;2024-01-15T06:31:12;93520.17;;;-4.20;68.18
84024;BME280;74109;45.636;25.582;2024-01-15T06:33:42;93519.89;;;-4.23;68.92
84024;BME280;74109;45.636;25.582;2024-01-15T06:36:12;93523.24;;;-4.22;68.02
84024;BME280;74109;45.636;25.582;2024-01-15T06:38:43;93521.13;;;-4.22;68.40
84024;BME280;74109;45.636;25.582;2024-01-15T06:41:13;93514.89;;;-4.20;67.99
84024;BME280;74109;45.636;25.582;2024-01-15T06:43:48;93520.55;;;-4.14;68.34
84024;BME280;74109;45.636;25.582;2024-01-15T06:46:22;93513.94;;;-4.05;68.00
84024;BME280;74109;45.636;25.582;2024-01-15T06:48:52;93514.98;;;-3.96;68.04
84024;BME280;74109;45.636;25.582;2024-01-15T06:51:20;93513.77;;;-3.88;67.94
84024;BME280;74109;45.636;25.582;2024-01-15T06:53:50;93515.78;;;-3.80;67.63
84024;BME280;74109;45.636;25.582;2024-01-15T06:56:21;93511.01;;;-3.74;67.70
84024;BME280;74109;45.636;25.582;2024-01-15T06:58:48;93504.84;;;-3.67;67.74
84024;BME280;74109;45.636;25.582;2024-01-15T07:01:18;93501.38;;;-3.63;67.68
84024;BME280;74109;45.636;25.582;2024-01-15T07:03:59;93502.20;;;-3.63;67.67
84024;BME280;74109;45.636;25.582;2024-01-15T07:06:34;93505.67;;;-3.59;67.28
84024;BME280;74109;45.636;25.582;2024-01-15T07:09:12;93506.34;;;-3.53;67.17
84024;BME280;74109;45.636;25.582;2024-01-15T07:11:46;93506.68;;;-3.46;67.19
84024;BME280;74109;45.636;25.582;2024-01-15T07:14:13;93515.05;;;-3.40;66.96
84024;BME280;74109;45.636;25.582;2024-01-15T07:16:44;93516.35;;;-3.36;66.90
84024;BME280;74109;45.636;25.582;2024-01-15T07:19:17;93509.85;;;-3.33;66.63
84024;BME280;74109;45.636;25.582;2024-01-15T07:21:57;93502.52;;;-3.31;67.08
84024;BME280;74109;45.636;25.582;2024-01-15T07:24:24;93499.06;;;-3.25;66.94
84024;BME280;74109;45.636;25.582;2024-01-15T07:26:52;93496.41;;;-3.16;66.28
84024;BME280;74109;45.636;25.582;2024-01-15T07:29:21;93496.39;;;-3.08;66.47
84024;BME280;74109;45.636;25.582;2024-01-15T07:31:50;93494.86;;;-3.02;66.54
84024;BME280;74109;45.636;25.582;2024-01-15T07:34:19;93488.63;;;-2.97;66.26
84024;BME280;74109;45.636;25.582;2024-01-15T07:36:48;93491.27;;;-2.92;66.37
84024;BME280;74109;45.636;25.582;2024-01-15T07:39:17;93494.11;;;-2.86;65.80
84024;BME280;74109;45.636;25.582;2024-01-15T07:41:45;93488.62;;;-2.77;66.28
84024;BME280;74109;45.636;25.582;2024-01-15T07:44:13;93484.00;;;-2.66;66.18
84024;BME280;74109;45.636;25.582;2024-01-15T07:46:47;93486.29;;;-2.57;66.31
84024;BME280;74109;45.636;25.582;2024-01-15T07:49:15;93487.05;;;-2.51;65.51
84024;BME280;74109;45.636;25.582;2024-01-15T07:51:47;93482.20;;;-2.47;65.39
84024;BME280;74109;45.636;25.582;2024-01-15T07:54:44;93483.33;;;-2.41;65.51
84024;BME280;74109;45.636;25.582;2024-01-15T07:57:32;93484.01;;;-2.36;66.10
84024;BME280;74109;45.636;25.582;2024-01-15T08:05:15;93478.63;;;-2.24;64.93
84024;BME280;74109;45.636;25.582;2024-01-15T08:09:43;93474.42;;;-2.26;64.81
84024;BME280;74109;45.636;25.582;2024-01-15T08:24:36;93476.89;;;-1.67;64.43
84024;BME280;74109;45.636;25.582;2024-01-15T08:27:35;93475.10;;;-1.68;63.81
84024;BME280;74109;45.636;25.582;2024-01-15T08:30:45;93479.85;;;-1.78;62.72
84024;BME280;74109;45.636;25.582;2024-01-15T08:34:24;93483.31;;;-1.85;63.54
84024;BME280;74109;45.636;25.582;2024-01-15T08:37:18;93483.00;;;-1.84;63.83
84024;BME280;74109;45.636;25.582;2024-01-15T08:40:49;93480.27;;;-1.62;62.90
84024;BME280;74109;45.636;25.582;2024-01-15T08:44:24;93476.75;;;-0.78;61.27
84024;BME280;74109;45.636;25.582;2024-01-15T08:47:39;93478.18;;;0.20;57.97
84024;BME280;74109;45.636;25.582;2024-01-15T08:50:32;93469.25;;;0.67;57.48
84024;BME280;74109;45.636;25.582;2024-01-15T08:53:35;93451.33;;;1.14;55.70
84024;BME280;74109;45.636;25.582;2024-01-15T08:56:14;93446.55;;;1.72;55.57
84024;BME280;74109;45.636;25.582;2024-01-15T08:59:16;93431.20;;;2.06;54.64
84024;BME280;74109;45.636;25.582;2024-01-15T09:02:51;93419.38;;;2.25;53.01
84024;BME280;74109;45.636;25.582;2024-01-15T09:06:59;93414.59;;;2.23;54.07
84024;BME280;74109;45.636;25.582;2024-01-15T09:10:01;93406.13;;;2.21;52.07
84024;BME280;74109;45.636;25.582;2024-01-15T09:13:24;93397.75;;;2.33;53.63
84024;BME280;74109;45.636;25.582;2024-01-15T09:17:03;93390.02;;;2.26;52.16
84024;BME280;74109;45.636;25.582;2024-01-15T09:20:16;93382.77;;;2.24;53.30
84024;BME280;74109;45.636;25.582;2024-01-15T09:27:12;93369.02;;;2.67;55.02
84024;BME280;74109;45.636;25.582;2024-01-15T09:29:44;93363.50;;;3.08;54.27
84024;BME280;74109;45.636;25.582;2024-01-15T09:32:51;93356.48;;;3.75;52.45
84024;BME280;74109;45.636;25.582;2024-01-15T09:35:18;93358.12;;;4.37;51.86
84024;BME280;74109;45.636;25.582;2024-01-15T09:37:55;93355.59;;;4.82;51.45
84024;BME280;74109;45.636;25.582;2024-01-15T09:40:29;93351.23;;;5.20;49.45
84024;BME280;74109;45.636;25.582;2024-01-15T09:43:07;93340.95;;;5.67;48.62
84024;BME280;74109;45.636;25.582;2024-01-15T09:45:46;93340.36;;;5.93;48.36
84024;BME280;74109;45.636;25.582;2024-01-15T09:48:13;93333.46;;;6.06;46.73
84024;BME280;74109;45.636;25.582;2024-01-15T09:50:53;93336.33;;;6.19;46.68
84024;BME280;74109;45.636;25.582;2024-01-15T09:53:53;93326.69;;;6.31;47.70
84024;BME280;74109;45.636;25.582;2024-01-15T10:00:44;93326.66;;;6.54;47.13
84024;BME280;74109;45.636;25.582;2024-01-15T10:17:15;93305.52;;;8.29;49.75
84024;BME280;74109;45.636;25.582;2024-01-15T10:20:36;93291.08;;;8.71;52.81
84024;BME280;74109;45.636;25.582;2024-01-15T10:24:05;93283.77;;;9.10;52.65
84024;BME280;74109;45.636;25.582;2024-01-15T10:27:16;93279.09;;;9.40;50.98
84024;BME280;74109;45.636;25.582;2024-01-15T10:30:15;93268.82;;;9.57;49.98
84024;BME280;74109;45.636;25.582;2024-01-15T10:36:56;93257.33;;;10.20;46.86
84024;BME280;74109;45.636;25.582;2024-01-15T10:39:26;93250.71;;;10.30;51.33
84024;BME280;74109;45.636;25.582;2024-01-15T10:42:09;93251.23;;;10.33;48.66
84024;BME280;74109;45.636;25.582;2024-01-15T10:44:41;93241.08;;;10.38;49.84
84024;BME280;74109;45.636;25.582;2024-01-15T10:47:46;93225.54;;;10.48;46.72
84024;BME280;74109;45.636;25.582;2024-01-15T10:50:40;93227.06;;;10.50;50.21
84024;BME280;74109;45.636;25.582;2024-01-15T10:53:25;93219.92;;;10.69;49.38
84024;BME280;74109;45.636;25.582;2024-01-15T10:56:46;93217.44;;;11.05;51.84
84024;BME280;74109;45.636;25.582;2024-01-15T11:00:49;93212.08;;;10.77;52.24
84024;BME280;74109;45.636;25.582;2024-01-15T11:08:57;93203.31;;;11.01;44.16
84024;BME280;74109;45.636;25.582;2024-01-15T11:23:59;93175.73;;;9.53;45.15
84024;BME280;74109;45.636;25.582;2024-01-15T11:26:50;93175.00;;;9.36;47.26
84024;BME280;74109;45.636;25.582;2024-01-15T11:32:10;93182.46;;;9.30;46.74
84024;BME280;74109;45.636;25.582;2024-01-15T11:34:55;93173.86;;;9.24;46.73
84024;BME280;74109;45.636;25.582;2024-01-15T11:40:22;93171.20;;;9.41;50.23
84024;BME280;74109;45.636;25.582;2024-01-15T11:42:51;93159.36;;;9.85;52.75
84024;BME280;74109;45.636;25.582;2024-01-15T11:45:21;93154.44;;;10.07;54.74
84024;BME280;74109;45.636;25.582;2024-01-15T11:50:52;93136.81;;;10.69;49.84
84024;BME280;74109;45.636;25.582;2024-01-15T11:53:47;93134.73;;;11.10;49.21
84024;BME280;74109;45.636;25.582;2024-01-15T11:56:18;93129.09;;;11.27;44.70
84024;BME280;74109;45.636;25.582;2024-01-15T11:58:48;93118.54;;;11.24;42.27
84024;BME280;74109;45.636;25.582;2024-01-15T12:01:18;93119.11;;;10.85;41.96
84024;BME280;74109;45.636;25.582;2024-01-15T12:03:47;93106.77;;;10.63;41.94
84024;BME280;74109;45.636;25.582;2024-01-15T12:06:15;93095.63;;;10.21;41.23
84024;BME280;74109;45.636;25.582;2024-01-15T12:08:42;93097.19;;;9.94;42.23
84024;BME280;74109;45.636;25.582;2024-01-15T12:11:13;93084.64;;;9.71;42.56
84024;BME280;74109;45.636;25.582;2024-01-15T12:13:40;93085.06;;;9.49;44.05
84024;BME280;74109;45.636;25.582;2024-01-15T12:16:07;93086.59;;;9.55;45.69
84024;BME280;74109;45.636;25.582;2024-01-15T12:18:34;93091.36;;;9.55;44.31
84024;BME280;74109;45.636;25.582;2024-01-15T12:21:04;93092.67;;;9.53;47.07
84024;BME280;74109;45.636;25.582;2024-01-15T12:23:31;93105.95;;;9.64;44.14
84024;BME280;74109;45.636;25.582;2024-01-15T12:25:58;93091.28;;;9.63;45.80
84024;BME280;74109;45.636;25.582;2024-01-15T12:28:27;93091.90;;;9.56;44.05
84024;BME280;74109;45.636;25.582;2024-01-15T12:30:55;93099.30;;;9.52;45.63
84024;BME280;74109;45.636;25.582;2024-01-15T12:33:27;93091.20;;;9.55;45.47
84024;BME280;74109;45.636;25.582;2024-01-15T12:35:54;93093.98;;;9.60;45.75
84024;BME280;74109;45.636;25.582;2024-01-15T12:38:21;93085.88;;;9.54;42.44
84024;BME280;74109;45.636;25.582;2024-01-15T12:40:48;93078.39;;;9.39;44.85
84024;BME280;74109;45.636;25.582;2024-01-15T12:43:17;93079.11;;;9.31;45.39
84024;BME280;74109;45.636;25.582;2024-01-15T12:45:44;93078.30;;;9.23;44.87
84024;BME280;74109;45.636;25.582;2024-01-15T12:48:12;93077.80;;;9.37;47.08
84024;BME280;74109;45.636;25.582;2024-01-15T12:50:42;93075.33;;;9.55;47.35
84024;BME280;74109;45.636;25.582;2024-01-15T12:53:10;93072.65;;;9.85;48.55
84024;BME280;74109;45.636;25.582;2024-01-15T12:55:37;93073.07;;;9.94;45.74
84024;BME280;74109;45.636;25.582;2024-01-15T12:58:04;93056.23;;;9.29;40.18
84024;BME280;74109;45.636;25.582;2024-01-15T13:00:31;93053.77;;;8.76;42.04
84024;BME280;74109;45.636;25.582;2024-01-15T13:02:58;93047.24;;;8.17;42.54
84024;BME280;74109;45.636;25.582;2024-01-15T13:05:28;93047.29;;;7.74;43.41
84024;BME280;74109;45.636;25.582;2024-01-15T13:07:57;93048.16;;;7.46;45.15
84024;BME280;74109;45.636;25.582;2024-01-15T13:10:32;93040.11;;;7.26;46.31
84024;BME280;74109;45.636;25.582;2024-01-15T13:13:02;93047.67;;;7.18;46.95
84024;BME280;74109;45.636;25.582;2024-01-15T13:15:29;93045.42;;;7.17;46.99
84024;BME280;74109;45.636;25.582;2024-01-15T13:17:57;93041.59;;;7.10;45.85
84024;BME280;74109;45.636;25.582;2024-01-15T13:20:24;93049.16;;;7.02;46.32
84024;BME280;74109;45.636;25.582;2024-01-15T13:22:51;93052.26;;;6.99;47.25
84024;BME280;74109;45.636;25.582;2024-01-15T13:25:18;93061.61;;;6.94;47.18
84024;BME280;74109;45.636;25.582;2024-01-15T13:27:44;93059.89;;;6.90;47.30
84024;BME280;74109;45.636;25.582;2024-01-15T13:30:12;93061.06;;;6.91;47.93
84024;BME280;74109;45.636;25.582;2024-01-15T13:32:39;93056.20;;;6.86;47.41
84024;BME280;74109;45.636;25.582;2024-01-15T13:35:06;93051.64;;;6.89;47.14
84024;BME280;74109;45.636;25.582;2024-01-15T13:37:42;93050.67;;;6.90;47.77
84024;BME280;74109;45.636;25.582;2024-01-15T13:40:15;93041.97;;;6.88;47.68
84024;BME280;74109;45.636;25.582;2024-01-15T13:42:47;93037.92;;;6.85;47.99
84024;BME280;74109;45.636;25.582;2024-01-15T13:45:15;93038.80;;;6.83;47.84
84024;BME280;74109;45.636;25.582;2024-01-15T13:47:42;93037.80;;;6.79;48.95
84024;BME280;74109;45.636;25.582;2024-01-15T13:50:12;93037.45;;;6.76;47.55
84024;BME280;74109;45.636;25.582;2024-01-15T13:52:39;93046.14;;;6.69;48.22
84024;BME280;74109;45.636;25.582;2024-01-15T13:55:06;93044.59;;;6.65;48.94
84024;BME280;74109;45.636;25.582;2024-01-15T13:57:35;93042.33;;;6.66;48.82
84024;BME280;74109;45.636;25.582;2024-01-15T14:00:02;93040.95;;;6.61;48.51
84024;BME280;74109;45.636;25.582;2024-01-15T14:02:37;93036.83;;;6.51;48.46
84024;BME280;74109;45.636;25.582;2024-01-15T14:05:04;93034.06;;;6.46;48.93
84024;BME280;74109;45.636;25.582;2024-01-15T14:07:31;93034.81;;;6.40;48.96
84024;BME280;74109;45.636;25.582;2024-01-15T14:09:59;93034.15;;;6.37;49.16
84024;BME280;74109;45.636;25.582;2024-01-15T14:12:26;93029.39;;;6.30;48.88
84024;BME280;74109;45.636;25.582;2024-01-15T14:14:53;93033.83;;;6.24;49.18
84024;BME280;74109;45.636;25.582;2024-01-15T14:17:20;93028.59;;;6.23;48.86
84024;BME280;74109;45.636;25.582;2024-01-15T14:19:47;93032.88;;;6.16;48.88
84024;BME280;74109;45.636;25.582;2024-01-15T14:22:14;93035.20;;;6.12;49.75
84024;BME280;74109;45.636;25.582;2024-01-15T14:24:41;93031.80;;;6.13;49.57
84024;BME280;74109;45.636;25.582;2024-01-15T14:27:08;93035.26;;;6.10;49.68
84024;BME280;74109;45.636;25.582;2024-01-15T14:29:35;93039.21;;;6.07;49.65
84024;BME280;74109;45.636;25.582;2024-01-15T14:32:03;93042.67;;;6.05;49.47
84024;BME280;74109;45.636;25.582;2024-01-15T14:34:29;93038.88;;;5.97;49.60
84024;BME280;74109;45.636;25.582;2024-01-15T14:36:56;93039.35;;;5.89;49.32